Time,TemperatureF,DewpointF,PressureIn,WindDirection,WindDirectionDegrees,WindSpeedMPH,WindSpeedGustMPH,Humidity,HourlyPrecipIn,Conditions,Clouds,dailyrainin,SoftwareType,DateUTC
2013-01-02 00:01:00,22.4,19.6,30.41,N/A,-737280,0.0,-999.0,89,0.00,,,0.00,Wunderground v.1.15,2013-01-02 06:01:00,
2013-01-02 00:06:00,22.4,19.6,30.41,N/A,-737280,0.0,-999.0,89,0.00,,,0.00,Wunderground v.1.15,2013-01-02 06:06:00,
2013-01-02 00:11:00,22.2,19.5,30.41,N/A,-737280,0.0,-999.0,89,0.00,,,0.00,Wunderground v.1.15,2013-01-02 06:11:00,
2013-01-02 00:16:00,22.2,19.5,30.41,N/A,-737280,0.0,-999.0,89,0.00,,,0.00,Wunderground v.1.15,2013-01-02 06:16:00,
2013-01-02 00:21:00,22.1,19.4,30.42,N/A,-737280,0.0,-999.0,89,0.00,,,0.00,Wunderground v.1.15,2013-01-02 06:21:00,
2013-01-02 00:26:00,21.9,19.2,30.42,N/A,-737280,0.0,-999.0,89,0.00,,,0.00,Wunderground v.1.15,2013-01-02 06:26:00,
2013-01-02 00:31:00,21.9,19.2,30.42,N/A,-737280,0.0,-999.0,89,0.00,,,0.00,Wunderground v.1.15,2013-01-02 06:31:00,
2013-01-02 00:36:00,21.8,19.1,30.42,N/A,-737280,0.0,-999.0,89,0.00,,,0.00,Wunderground v.1.15,2013-01-02 06:36:00,
2013-01-02 00:41:00,21.7,19.2,30.42,N/A,-737280,0.0,-999.0,90,0.00,,,0.00,Wunderground v.1.15,2013-01-02 06:41:00,
2013-01-02 00:46:00,21.6,19.1,30.42,N/A,-737280,0.0,-999.0,90,0.00,,,0.00,Wunderground v.1.15,2013-01-02 06:46:00,
2013-01-02 00:51:00,21.4,18.9,30.42,N/A,-737280,0.0,-999.0,90,0.00,,,0.00,Wunderground v.1.15,2013-01-02 06:51:00,
2013-01-02 00:56:00,21.3,18.8,30.42,N/A,-737280,0.0,-999.0,90,0.00,,,0.00,Wunderground v.1.15,2013-01-02 06:56:00,
2013-01-02 01:01:00,21.1,18.6,30.42,N/A,-737280,0.0,-999.0,90,0.00,,,0.00,Wunderground v.1.15,2013-01-02 07:01:00,
2013-01-02 01:06:00,20.9,18.2,30.43,N/A,-737280,0.0,-999.0,89,0.00,,,0.00,Wunderground v.1.15,2013-01-02 07:06:00,
2013-01-02 01:11:00,20.7,18.2,30.43,N/A,-737280,0.0,-999.0,90,0.00,,,0.00,Wunderground v.1.15,2013-01-02 07:11:00,
2013-01-02 01:16:00,20.5,18.0,30.43,N/A,-737280,0.0,-999.0,90,0.00,,,0.00,Wunderground v.1.15,2013-01-02 07:16:00,
2013-01-02 01:21:00,20.4,17.9,30.43,N/A,-737280,0.0,-999.0,90,0.00,,,0.00,Wunderground v.1.15,2013-01-02 07:21:00,
2013-01-02 01:26:00,20.3,17.8,30.43,N/A,-737280,0.0,-999.0,90,0.00,,,0.00,Wunderground v.1.15,2013-01-02 07:26:00,
2013-01-02 01:31:00,20.3,17.8,30.43,N/A,-737280,0.0,-999.0,90,0.00,,,0.00,Wunderground v.1.15,2013-01-02 07:31:00,
2013-01-02 01:36:00,20.2,17.7,30.44,N/A,-737280,0.0,-999.0,90,0.00,,,0.00,Wunderground v.1.15,2013-01-02 07:36:00,
2013-01-02 01:41:00,20.0,17.5,30.44,N/A,-737280,0.0,-999.0,90,0.00,,,0.00,Wunderground v.1.15,2013-01-02 07:41:00,
2013-01-02 01:46:00,19.9,17.4,30.44,N/A,-737280,0.0,-999.0,90,0.00,,,0.00,Wunderground v.1.15,2013-01-02 07:46:00,
2013-01-02 01:51:00,19.7,17.2,30.44,N/A,-737280,0.0,-999.0,90,0.00,,,0.00,Wunderground v.1.15,2013-01-02 07:51:00,
2013-01-02 01:56:00,19.7,17.2,30.44,N/A,-737280,0.0,-999.0,90,0.00,,,0.00,Wunderground v.1.15,2013-01-02 07:56:00,
2013-01-02 02:01:00,19.5,17.0,30.45,N/A,-737280,0.0,-999.0,90,0.00,,,0.00,Wunderground v.1.15,2013-01-02 08:01:00,
2013-01-02 02:06:00,19.2,16.7,30.45,N/A,-737280,0.0,-999.0,90,0.00,,,0.00,Wunderground v.1.15,2013-01-02 08:06:00,
2013-01-02 02:11:00,18.9,16.5,30.45,N/A,-737280,0.0,-999.0,90,0.00,,,0.00,Wunderground v.1.15,2013-01-02 08:11:00,
2013-01-02 02:16:00,18.7,16.3,30.45,N/A,-737280,0.0,-999.0,90,0.00,,,0.00,Wunderground v.1.15,2013-01-02 08:16:00,
2013-01-02 02:21:00,18.7,16.3,30.44,N/A,-737280,0.0,-999.0,90,0.00,,,0.00,Wunderground v.1.15,2013-01-02 08:21:00,
2013-01-02 02:26:00,18.8,16.4,30.44,N/A,-737280,0.0,-999.0,90,0.00,,,0.00,Wunderground v.1.15,2013-01-02 08:26:00,
2013-01-02 02:31:00,18.9,16.5,30.44,N/A,-737280,0.0,-999.0,90,0.00,,,0.00,Wunderground v.1.15,2013-01-02 08:31:00,
2013-01-02 02:36:00,18.9,16.5,30.44,N/A,-737280,0.0,-999.0,90,0.00,,,0.00,Wunderground v.1.15,2013-01-02 08:36:00,
2013-01-02 02:41:00,19.0,16.6,30.44,N/A,-737280,0.0,-999.0,90,0.00,,,0.00,Wunderground v.1.15,2013-01-02 08:41:00,
2013-01-02 02:46:00,19.0,16.6,30.45,N/A,-737280,0.0,-999.0,90,0.00,,,0.00,Wunderground v.1.15,2013-01-02 08:46:00,
2013-01-02 02:51:00,18.9,16.5,30.45,N/A,-737280,0.0,-999.0,90,0.00,,,0.00,Wunderground v.1.15,2013-01-02 08:51:00,
2013-01-02 02:56:00,18.7,16.3,30.44,N/A,-737280,0.0,-999.0,90,0.00,,,0.00,Wunderground v.1.15,2013-01-02 08:56:00,
2013-01-02 03:01:00,18.5,16.1,30.45,N/A,-737280,0.0,-999.0,90,0.00,,,0.00,Wunderground v.1.15,2013-01-02 09:01:00,
2013-01-02 03:06:00,18.2,15.8,30.44,N/A,-737280,0.0,-999.0,90,0.00,,,0.00,Wunderground v.1.15,2013-01-02 09:06:00,
2013-01-02 03:11:00,18.1,15.7,30.44,N/A,-737280,0.0,-999.0,90,0.00,,,0.00,Wunderground v.1.15,2013-01-02 09:11:00,
2013-01-02 03:16:00,18.3,16.1,30.45,N/A,-737280,0.0,-999.0,91,0.00,,,0.00,Wunderground v.1.15,2013-01-02 09:16:00,
2013-01-02 03:21:00,18.4,16.0,30.45,N/A,-737280,0.0,-999.0,90,0.00,,,0.00,Wunderground v.1.15,2013-01-02 09:21:00,
2013-01-02 03:26:00,18.5,16.1,30.45,N/A,-737280,0.0,-999.0,90,0.00,,,0.00,Wunderground v.1.15,2013-01-02 09:26:00,
2013-01-02 03:31:00,18.4,16.2,30.44,N/A,-737280,0.0,-999.0,91,0.00,,,0.00,Wunderground v.1.15,2013-01-02 09:31:00,
2013-01-02 03:36:00,18.3,16.1,30.44,N/A,-737280,0.0,-999.0,91,0.00,,,0.00,Wunderground v.1.15,2013-01-02 09:36:00,
2013-01-02 03:41:00,18.1,15.9,30.44,N/A,-737280,0.0,-999.0,91,0.00,,,0.00,Wunderground v.1.15,2013-01-02 09:41:00,
2013-01-02 03:46:00,18.0,15.6,30.44,N/A,-737280,0.0,-999.0,90,0.00,,,0.00,Wunderground v.1.15,2013-01-02 09:46:00,
2013-01-02 03:51:00,17.8,15.6,30.44,N/A,-737280,0.0,-999.0,91,0.00,,,0.00,Wunderground v.1.15,2013-01-02 09:51:00,
2013-01-02 03:56:00,17.8,15.6,30.44,N/A,-737280,0.0,-999.0,91,0.00,,,0.00,Wunderground v.1.15,2013-01-02 09:56:00,
2013-01-02 04:01:00,17.8,15.6,30.44,N/A,-737280,0.0,-999.0,91,0.00,,,0.00,Wunderground v.1.15,2013-01-02 10:01:00,
2013-01-02 04:06:00,17.8,15.6,30.43,N/A,-737280,0.0,-999.0,91,0.00,,,0.00,Wunderground v.1.15,2013-01-02 10:06:00,
2013-01-02 04:11:00,17.7,15.5,30.44,N/A,-737280,0.0,-999.0,91,0.00,,,0.00,Wunderground v.1.15,2013-01-02 10:11:00,
2013-01-02 04:16:00,17.6,15.4,30.43,N/A,-737280,0.0,-999.0,91,0.00,,,0.00,Wunderground v.1.15,2013-01-02 10:16:00,
2013-01-02 04:21:00,17.5,15.3,30.44,N/A,-737280,0.0,-999.0,91,0.00,,,0.00,Wunderground v.1.15,2013-01-02 10:21:00,
2013-01-02 04:26:00,17.3,15.1,30.43,N/A,-737280,0.0,-999.0,91,0.00,,,0.00,Wunderground v.1.15,2013-01-02 10:26:00,
2013-01-02 04:31:00,17.1,14.9,30.43,N/A,-737280,0.0,-999.0,91,0.00,,,0.00,Wunderground v.1.15,2013-01-02 10:31:00,
2013-01-02 04:36:00,17.0,14.8,30.43,N/A,-737280,0.0,-999.0,91,0.00,,,0.00,Wunderground v.1.15,2013-01-02 10:36:00,
2013-01-02 04:41:00,17.0,14.8,30.44,N/A,-737280,0.0,-999.0,91,0.00,,,0.00,Wunderground v.1.15,2013-01-02 10:41:00,
2013-01-02 04:46:00,17.1,14.9,30.44,N/A,-737280,0.0,-999.0,91,0.00,,,0.00,Wunderground v.1.15,2013-01-02 10:46:00,
2013-01-02 04:51:00,17.3,15.1,30.44,N/A,-737280,0.0,-999.0,91,0.00,,,0.00,Wunderground v.1.15,2013-01-02 10:51:00,
2013-01-02 04:56:00,17.4,15.2,30.44,N/A,-737280,0.0,-999.0,91,0.00,,,0.00,Wunderground v.1.15,2013-01-02 10:56:00,
2013-01-02 05:01:00,17.4,15.2,30.44,N/A,-737280,0.0,-999.0,91,0.00,,,0.00,Wunderground v.1.15,2013-01-02 11:01:00,
2013-01-02 05:06:00,17.4,15.2,30.44,N/A,-737280,0.0,-999.0,91,0.00,,,0.00,Wunderground v.1.15,2013-01-02 11:06:00,
2013-01-02 05:11:00,17.3,15.1,30.44,N/A,-737280,0.0,-999.0,91,0.00,,,0.00,Wunderground v.1.15,2013-01-02 11:11:00,
2013-01-02 05:16:00,17.2,15.0,30.44,N/A,-737280,0.0,-999.0,91,0.00,,,0.00,Wunderground v.1.15,2013-01-02 11:16:00,
2013-01-02 05:21:00,17.0,14.8,30.44,N/A,-737280,0.0,-999.0,91,0.00,,,0.00,Wunderground v.1.15,2013-01-02 11:21:00,
2013-01-02 05:26:00,16.8,14.6,30.44,N/A,-737280,0.0,-999.0,91,0.00,,,0.00,Wunderground v.1.15,2013-01-02 11:26:00,
2013-01-02 05:31:00,16.7,14.5,30.44,N/A,-737280,0.0,-999.0,91,0.00,,,0.00,Wunderground v.1.15,2013-01-02 11:31:00,
2013-01-02 05:36:00,16.8,14.6,30.44,N/A,-737280,0.0,-999.0,91,0.00,,,0.00,Wunderground v.1.15,2013-01-02 11:36:00,
2013-01-02 05:41:00,16.6,14.4,30.44,N/A,-737280,0.0,-999.0,91,0.00,,,0.00,Wunderground v.1.15,2013-01-02 11:41:00,
2013-01-02 05:46:00,15.9,13.7,30.44,N/A,-737280,0.0,-999.0,91,0.00,,,0.00,Wunderground v.1.15,2013-01-02 11:46:00,
2013-01-02 05:51:00,15.7,13.5,30.43,N/A,-737280,0.0,-999.0,91,0.00,,,0.00,Wunderground v.1.15,2013-01-02 11:51:00,
2013-01-02 05:56:00,15.6,13.4,30.43,N/A,-737280,0.0,-999.0,91,0.00,,,0.00,Wunderground v.1.15,2013-01-02 11:56:00,
2013-01-02 06:01:00,15.6,13.4,30.43,N/A,-737280,0.0,-999.0,91,0.00,,,0.00,Wunderground v.1.15,2013-01-02 12:01:00,
2013-01-02 06:06:00,15.5,13.3,30.43,N/A,-737280,0.0,-999.0,91,0.00,,,0.00,Wunderground v.1.15,2013-01-02 12:06:00,
2013-01-02 06:11:00,15.4,13.2,30.43,N/A,-737280,0.0,-999.0,91,0.00,,,0.00,Wunderground v.1.15,2013-01-02 12:11:00,
2013-01-02 06:16:00,15.3,12.9,30.43,N/A,-737280,0.0,-999.0,90,0.00,,,0.00,Wunderground v.1.15,2013-01-02 12:16:00,
2013-01-02 06:21:00,15.3,12.9,30.44,N/A,-737280,0.0,-999.0,90,0.00,,,0.00,Wunderground v.1.15,2013-01-02 12:21:00,
2013-01-02 06:26:00,15.3,13.1,30.43,N/A,-737280,0.0,-999.0,91,0.00,,,0.00,Wunderground v.1.15,2013-01-02 12:26:00,
2013-01-02 06:31:00,15.5,13.3,30.43,N/A,-737280,0.0,-999.0,91,0.00,,,0.00,Wunderground v.1.15,2013-01-02 12:31:00,
2013-01-02 06:36:00,16.0,13.8,30.43,N/A,-737280,0.0,-999.0,91,0.00,,,0.00,Wunderground v.1.15,2013-01-02 12:36:00,
2013-01-02 06:41:00,16.4,14.2,30.43,N/A,-737280,0.0,-999.0,91,0.00,,,0.00,Wunderground v.1.15,2013-01-02 12:41:00,
2013-01-02 06:46:00,16.5,14.3,30.43,N/A,-737280,0.0,-999.0,91,0.00,,,0.00,Wunderground v.1.15,2013-01-02 12:46:00,
2013-01-02 06:51:00,16.5,14.3,30.43,N/A,-737280,0.0,-999.0,91,0.00,,,0.00,Wunderground v.1.15,2013-01-02 12:51:00,
2013-01-02 06:56:00,16.6,14.4,30.43,N/A,-737280,0.0,-999.0,91,0.00,,,0.00,Wunderground v.1.15,2013-01-02 12:56:00,
2013-01-02 07:01:00,17.1,14.9,30.43,N/A,-737280,0.0,-999.0,91,0.00,,,0.00,Wunderground v.1.15,2013-01-02 13:01:00,
2013-01-02 07:06:00,18.0,15.8,30.42,N/A,-737280,0.0,-999.0,91,0.00,,,0.00,Wunderground v.1.15,2013-01-02 13:06:00,
2013-01-02 07:11:00,19.2,17.0,30.42,N/A,-737280,0.0,-999.0,91,0.00,,,0.00,Wunderground v.1.15,2013-01-02 13:11:00,
2013-01-02 07:16:00,19.7,17.5,30.43,N/A,-737280,0.0,-999.0,91,0.00,,,0.00,Wunderground v.1.15,2013-01-02 13:16:00,
2013-01-02 07:21:00,19.7,17.5,30.43,ENE,68,0.0,-999.0,91,0.00,,,0.00,Wunderground v.1.15,2013-01-02 13:21:00,
2013-01-02 07:26:00,19.7,17.5,30.43,ENE,68,1.0,-999.0,91,0.00,,,0.00,Wunderground v.1.15,2013-01-02 13:26:00,
2013-01-02 07:31:00,19.8,17.6,30.43,East,90,1.0,-999.0,91,0.00,,,0.00,Wunderground v.1.15,2013-01-02 13:31:00,
2013-01-02 07:36:00,19.7,17.5,30.42,East,90,2.0,-999.0,91,0.00,,,0.00,Wunderground v.1.15,2013-01-02 13:36:00,
2013-01-02 07:41:00,19.7,17.5,30.43,East,90,1.0,-999.0,91,0.00,,,0.00,Wunderground v.1.15,2013-01-02 13:41:00,
2013-01-02 07:46:00,19.9,17.7,30.42,ESE,113,2.0,-999.0,91,0.00,,,0.00,Wunderground v.1.15,2013-01-02 13:46:00,
2013-01-02 07:51:00,20.0,17.8,30.42,ESE,113,3.0,-999.0,91,0.00,,,0.00,Wunderground v.1.15,2013-01-02 13:51:00,
2013-01-02 07:56:00,20.1,17.9,30.43,ESE,113,2.0,-999.0,91,0.00,,,0.00,Wunderground v.1.15,2013-01-02 13:56:00,
2013-01-02 08:01:00,20.2,18.0,30.43,SE,135,1.0,-999.0,91,0.00,,,0.00,Wunderground v.1.15,2013-01-02 14:01:00,
2013-01-02 08:06:00,20.5,18.3,30.43,SE,135,2.0,-999.0,91,0.00,,,0.00,Wunderground v.1.15,2013-01-02 14:06:00,
2013-01-02 08:11:00,20.4,18.2,30.43,SE,135,2.0,-999.0,91,0.00,,,0.00,Wunderground v.1.15,2013-01-02 14:11:00,
2013-01-02 08:16:00,20.6,18.4,30.44,SSE,158,1.0,-999.0,91,0.00,,,0.00,Wunderground v.1.15,2013-01-02 14:16:00,
2013-01-02 08:21:00,20.7,18.5,30.44,SSE,158,2.0,-999.0,91,0.00,,,0.00,Wunderground v.1.15,2013-01-02 14:21:00,
2013-01-02 08:26:00,20.8,18.6,30.44,SSE,158,1.0,-999.0,91,0.00,,,0.00,Wunderground v.1.15,2013-01-02 14:26:00,
2013-01-02 08:31:00,21.0,18.8,30.44,SSE,158,1.0,-999.0,91,0.00,,,0.00,Wunderground v.1.15,2013-01-02 14:31:00,
2013-01-02 08:36:00,21.0,18.8,30.45,N/A,-737280,0.0,-999.0,91,0.00,,,0.00,Wunderground v.1.15,2013-01-02 14:36:00,
2013-01-02 08:41:00,21.0,18.8,30.45,SSE,158,2.0,-999.0,91,0.00,,,0.00,Wunderground v.1.15,2013-01-02 14:41:00,
2013-01-02 08:46:00,20.9,18.7,30.45,SSE,158,2.0,-999.0,91,0.00,,,0.00,Wunderground v.1.15,2013-01-02 14:46:00,
2013-01-02 08:51:00,21.0,18.8,30.44,SSE,158,0.0,-999.0,91,0.00,,,0.00,Wunderground v.1.15,2013-01-02 14:51:00,
2013-01-02 08:56:00,21.2,19.0,30.45,N/A,-737280,0.0,-999.0,91,0.00,,,0.00,Wunderground v.1.15,2013-01-02 14:56:00,
2013-01-02 09:01:00,21.0,18.8,30.45,SSE,158,2.0,-999.0,91,0.00,,,0.00,Wunderground v.1.15,2013-01-02 15:01:00,
2013-01-02 09:06:00,21.0,18.8,30.45,SSE,158,1.0,-999.0,91,0.00,,,0.00,Wunderground v.1.15,2013-01-02 15:06:00,
2013-01-02 09:11:00,20.9,18.7,30.45,SSE,158,2.0,-999.0,91,0.00,,,0.00,Wunderground v.1.15,2013-01-02 15:11:00,
2013-01-02 09:16:00,21.2,19.0,30.45,SSE,158,2.0,-999.0,91,0.00,,,0.00,Wunderground v.1.15,2013-01-02 15:16:00,
2013-01-02 09:21:00,21.5,19.3,30.45,SSE,158,2.0,-999.0,91,0.00,,,0.00,Wunderground v.1.15,2013-01-02 15:21:00,
2013-01-02 09:26:00,22.0,19.8,30.45,SSE,158,2.0,-999.0,91,0.00,,,0.00,Wunderground v.1.15,2013-01-02 15:26:00,
2013-01-02 09:31:00,22.4,20.4,30.46,South,180,3.0,-999.0,92,0.00,,,0.00,Wunderground v.1.15,2013-01-02 15:31:00,
2013-01-02 09:36:00,22.9,20.7,30.46,South,180,3.0,-999.0,91,0.00,,,0.00,Wunderground v.1.15,2013-01-02 15:36:00,
2013-01-02 09:41:00,23.1,21.1,30.46,South,180,2.0,-999.0,92,0.00,,,0.00,Wunderground v.1.15,2013-01-02 15:41:00,
2013-01-02 09:46:00,23.0,21.0,30.46,South,180,1.0,-999.0,92,0.00,,,0.00,Wunderground v.1.15,2013-01-02 15:46:00,
2013-01-02 09:51:00,22.8,20.6,30.47,N/A,-737280,0.0,-999.0,91,0.00,,,0.00,Wunderground v.1.15,2013-01-02 15:51:00,
2013-01-02 09:56:00,22.8,20.6,30.47,N/A,-737280,0.0,-999.0,91,0.00,,,0.00,Wunderground v.1.15,2013-01-02 15:56:00,
2013-01-02 10:01:00,22.9,20.7,30.47,South,180,1.0,-999.0,91,0.00,,,0.00,Wunderground v.1.15,2013-01-02 16:01:00,
2013-01-02 10:06:00,23.0,21.0,30.47,SSW,203,2.0,-999.0,92,0.00,,,0.00,Wunderground v.1.15,2013-01-02 16:06:00,
2013-01-02 10:11:00,22.8,20.6,30.47,SSW,203,3.0,-999.0,91,0.00,,,0.00,Wunderground v.1.15,2013-01-02 16:11:00,
2013-01-02 10:16:00,22.6,20.6,30.46,SSW,203,3.0,-999.0,92,0.00,,,0.00,Wunderground v.1.15,2013-01-02 16:16:00,
2013-01-02 10:21:00,22.8,20.6,30.46,SSW,203,1.0,-999.0,91,0.00,,,0.00,Wunderground v.1.15,2013-01-02 16:21:00,
2013-01-02 10:26:00,23.0,21.0,30.47,SSW,203,0.0,-999.0,92,0.00,,,0.00,Wunderground v.1.15,2013-01-02 16:26:00,
2013-01-02 10:31:00,23.5,21.5,30.46,SSW,203,2.0,-999.0,92,0.00,,,0.00,Wunderground v.1.15,2013-01-02 16:31:00,
2013-01-02 10:36:00,23.8,21.8,30.46,SSW,203,2.0,-999.0,92,0.00,,,0.00,Wunderground v.1.15,2013-01-02 16:36:00,
2013-01-02 10:41:00,23.6,21.4,30.47,SSW,203,3.0,-999.0,91,0.00,,,0.00,Wunderground v.1.15,2013-01-02 16:41:00,
2013-01-02 10:46:00,23.9,21.9,30.47,SSW,203,2.0,-999.0,92,0.00,,,0.00,Wunderground v.1.15,2013-01-02 16:46:00,
2013-01-02 10:51:00,24.2,22.2,30.47,SSW,203,3.0,-999.0,92,0.00,,,0.00,Wunderground v.1.15,2013-01-02 16:51:00,
2013-01-02 10:56:00,24.3,22.3,30.47,SSW,203,2.0,-999.0,92,0.00,,,0.00,Wunderground v.1.15,2013-01-02 16:56:00,
2013-01-02 11:01:00,24.3,22.3,30.46,SSW,203,2.0,-999.0,92,0.00,,,0.00,Wunderground v.1.15,2013-01-02 17:01:00,
2013-01-02 11:06:00,24.7,22.7,30.46,SSW,203,3.0,-999.0,92,0.00,,,0.00,Wunderground v.1.15,2013-01-02 17:06:00,
2013-01-02 11:11:00,24.8,22.8,30.46,SSW,203,4.0,-999.0,92,0.00,,,0.00,Wunderground v.1.15,2013-01-02 17:11:00,
2013-01-02 11:16:00,25.2,23.2,30.45,SW,225,4.0,-999.0,92,0.00,,,0.00,Wunderground v.1.15,2013-01-02 17:16:00,
2013-01-02 11:21:00,25.4,23.4,30.45,SSW,203,2.0,-999.0,92,0.00,,,0.00,Wunderground v.1.15,2013-01-02 17:21:00,
2013-01-02 11:26:00,25.4,23.4,30.45,SSW,203,4.0,-999.0,92,0.00,,,0.00,Wunderground v.1.15,2013-01-02 17:26:00,
2013-01-02 11:31:00,25.6,23.6,30.45,SSW,203,4.0,-999.0,92,0.00,,,0.00,Wunderground v.1.15,2013-01-02 17:31:00,
2013-01-02 11:36:00,25.8,23.8,30.45,SSW,203,4.0,-999.0,92,0.00,,,0.00,Wunderground v.1.15,2013-01-02 17:36:00,
2013-01-02 11:41:00,25.8,23.8,30.44,SW,225,3.0,-999.0,92,0.00,,,0.00,Wunderground v.1.15,2013-01-02 17:41:00,
2013-01-02 11:46:00,26.4,24.4,30.44,SW,225,3.0,-999.0,92,0.00,,,0.00,Wunderground v.1.15,2013-01-02 17:46:00,
2013-01-02 11:51:00,26.5,26.3,30.44,SW,225,3.0,-999.0,99,0.00,,,0.00,Wunderground v.1.15,2013-01-02 17:51:00,
2013-01-02 11:56:00,26.6,24.6,30.44,SW,225,4.0,-999.0,92,0.00,,,0.00,Wunderground v.1.15,2013-01-02 17:56:00,
2013-01-02 12:01:00,26.7,24.7,30.44,SW,225,3.0,-999.0,92,0.00,,,0.00,Wunderground v.1.15,2013-01-02 18:01:00,
2013-01-02 12:06:00,26.9,24.9,30.44,SW,225,2.0,-999.0,92,0.00,,,0.00,Wunderground v.1.15,2013-01-02 18:06:00,
2013-01-02 12:11:00,27.3,25.3,30.44,SW,225,4.0,-999.0,92,0.00,,,0.00,Wunderground v.1.15,2013-01-02 18:11:00,
2013-01-02 12:16:00,27.3,25.3,30.43,SW,225,3.0,-999.0,92,0.00,,,0.00,Wunderground v.1.15,2013-01-02 18:16:00,
2013-01-02 12:21:00,27.6,25.3,30.43,SW,225,3.0,-999.0,91,0.00,,,0.00,Wunderground v.1.15,2013-01-02 18:21:00,
2013-01-02 12:26:00,27.9,25.6,30.42,SW,225,3.0,-999.0,91,0.00,,,0.00,Wunderground v.1.15,2013-01-02 18:26:00,